sensor_id;sensor_type;location;lat;lon;timestamp;P1;durP1;ratioP1;P2;durP2;ratioP2
42146;SDS011;27815;43.410;11.852;2023-01-16T00:00:14;7.40;;;2.00;;
42146;SDS011;27815;43.410;11.852;2023-01-16T00:04:37;5.97;;;5.47;;
42146;SDS011;27815;43.410;11.852;2023-01-16T00:08:40;3.83;;;2.03;;
42146;SDS011;27815;43.410;11.852;2023-01-16T00:12:46;3.47;;;1.70;;
42146;SDS011;27815;43.410;11.852;2023-01-16T00:16:50;4.10;;;2.13;;
42146;SDS011;27815;43.410;11.852;2023-01-16T00:20:53;5.55;;;2.50;;
42146;SDS011;27815;43.410;11.852;2023-01-16T00:24:55;3.60;;;2.55;;
42146;SDS011;27815;43.410;11.852;2023-01-16T00:28:58;4.22;;;2.30;;
42146;SDS011;27815;43.410;11.852;2023-01-16T00:33:01;4.05;;;1.85;;
42146;SDS011;27815;43.410;11.852;2023-01-16T00:37:04;4.75;;;2.30;;
42146;SDS011;27815;43.410;11.852;2023-01-16T00:41:07;8.70;;;8.10;;
42146;SDS011;27815;43.410;11.852;2023-01-16T00:45:10;4.53;;;2.08;;
42146;SDS011;27815;43.410;11.852;2023-01-16T00:49:13;4.40;;;2.20;;
42146;SDS011;27815;43.410;11.852;2023-01-16T00:53:16;2.88;;;1.95;;
42146;SDS011;27815;43.410;11.852;2023-01-16T00:57:19;4.13;;;2.67;;
42146;SDS011;27815;43.410;11.852;2023-01-16T01:01:23;4.43;;;2.13;;
42146;SDS011;27815;43.410;11.852;2023-01-16T01:05:26;4.03;;;2.65;;
42146;SDS011;27815;43.410;11.852;2023-01-16T01:09:28;4.05;;;2.85;;
42146;SDS011;27815;43.410;11.852;2023-01-16T01:13:31;2.78;;;2.22;;
42146;SDS011;27815;43.410;11.852;2023-01-16T01:17:34;7.88;;;2.67;;
42146;SDS011;27815;43.410;11.852;2023-01-16T01:21:37;5.75;;;2.85;;
42146;SDS011;27815;43.410;11.852;2023-01-16T01:25:40;4.20;;;2.53;;
42146;SDS011;27815;43.410;11.852;2023-01-16T01:29:43;7.03;;;2.70;;
42146;SDS011;27815;43.410;11.852;2023-01-16T01:33:46;6.32;;;2.47;;
42146;SDS011;27815;43.410;11.852;2023-01-16T01:37:49;4.60;;;2.13;;
42146;SDS011;27815;43.410;11.852;2023-01-16T01:41:52;3.40;;;1.73;;
42146;SDS011;27815;43.410;11.852;2023-01-16T01:46:24;4.25;;;2.00;;
42146;SDS011;27815;43.410;11.852;2023-01-16T01:54:39;3.78;;;2.05;;
42146;SDS011;27815;43.410;11.852;2023-01-16T01:58:48;7.28;;;2.80;;
42146;SDS011;27815;43.410;11.852;2023-01-16T02:07:11;6.23;;;3.57;;
42146;SDS011;27815;43.410;11.852;2023-01-16T02:11:23;6.88;;;3.15;;
42146;SDS011;27815;43.410;11.852;2023-01-16T02:15:48;6.88;;;3.67;;
42146;SDS011;27815;43.410;11.852;2023-01-16T02:20:22;6.03;;;3.25;;
42146;SDS011;27815;43.410;11.852;2023-01-16T02:42:10;6.15;;;3.10;;
42146;SDS011;27815;43.410;11.852;2023-01-16T02:55:01;7.93;;;2.80;;
42146;SDS011;27815;43.410;11.852;2023-01-16T02:59:10;7.53;;;2.40;;
42146;SDS011;27815;43.410;11.852;2023-01-16T03:03:38;11.35;;;2.22;;
42146;SDS011;27815;43.410;11.852;2023-01-16T03:12:21;10.07;;;2.50;;
42146;SDS011;27815;43.410;11.852;2023-01-16T03:21:41;10.82;;;2.83;;
42146;SDS011;27815;43.410;11.852;2023-01-16T03:26:02;13.68;;;3.47;;
42146;SDS011;27815;43.410;11.852;2023-01-16T03:30:16;10.68;;;2.50;;
42146;SDS011;27815;43.410;11.852;2023-01-16T03:34:32;12.37;;;2.97;;
42146;SDS011;27815;43.410;11.852;2023-01-16T03:38:43;11.38;;;2.60;;
42146;SDS011;27815;43.410;11.852;2023-01-16T03:47:01;10.15;;;2.28;;
42146;SDS011;27815;43.410;11.852;2023-01-16T03:51:08;11.85;;;2.35;;
42146;SDS011;27815;43.410;11.852;2023-01-16T03:55:16;8.25;;;2.20;;
42146;SDS011;27815;43.410;11.852;2023-01-16T03:59:43;12.50;;;2.90;;
42146;SDS011;27815;43.410;11.852;2023-01-16T04:08:22;11.48;;;2.75;;
42146;SDS011;27815;43.410;11.852;2023-01-16T04:16:39;9.93;;;2.40;;
42146;SDS011;27815;43.410;11.852;2023-01-16T04:20:45;10.07;;;2.73;;
42146;SDS011;27815;43.410;11.852;2023-01-16T04:24:51;12.27;;;1.92;;
42146;SDS011;27815;43.410;11.852;2023-01-16T04:28:57;10.02;;;3.50;;
42146;SDS011;27815;43.410;11.852;2023-01-16T04:33:01;10.57;;;2.08;;
42146;SDS011;27815;43.410;11.852;2023-01-16T04:37:05;10.65;;;2.25;;
42146;SDS011;27815;43.410;11.852;2023-01-16T04:41:10;8.80;;;2.85;;
42146;SDS011;27815;43.410;11.852;2023-01-16T04:45:13;8.18;;;2.53;;
42146;SDS011;27815;43.410;11.852;2023-01-16T04:49:16;6.72;;;1.75;;
42146;SDS011;27815;43.410;11.852;2023-01-16T04:53:18;5.10;;;1.67;;
42146;SDS011;27815;43.410;11.852;2023-01-16T04:57:21;8.43;;;2.05;;
42146;SDS011;27815;43.410;11.852;2023-01-16T05:01:24;13.68;;;3.22;;
42146;SDS011;27815;43.410;11.852;2023-01-16T05:05:27;11.90;;;1.85;;
42146;SDS011;27815;43.410;11.852;2023-01-16T05:09:30;11.00;;;2.55;;
42146;SDS011;27815;43.410;11.852;2023-01-16T05:13:33;10.38;;;2.03;;
42146;SDS011;27815;43.410;11.852;2023-01-16T05:17:36;10.07;;;2.22;;
42146;SDS011;27815;43.410;11.852;2023-01-16T05:21:39;8.65;;;2.20;;
42146;SDS011;27815;43.410;11.852;2023-01-16T05:25:42;8.73;;;1.90;;
42146;SDS011;27815;43.410;11.852;2023-01-16T05:29:45;8.80;;;2.80;;
42146;SDS011;27815;43.410;11.852;2023-01-16T05:33:48;12.38;;;2.10;;
42146;SDS011;27815;43.410;11.852;2023-01-16T05:37:51;12.75;;;2.15;;
42146;SDS011;27815;43.410;11.852;2023-01-16T05:41:54;9.13;;;2.33;;
42146;SDS011;27815;43.410;11.852;2023-01-16T05:45:57;12.18;;;2.25;;
42146;SDS011;27815;43.410;11.852;2023-01-16T05:50:00;11.27;;;2.08;;
42146;SDS011;27815;43.410;11.852;2023-01-16T05:54:03;12.13;;;2.22;;
42146;SDS011;27815;43.410;11.852;2023-01-16T05:58:05;10.52;;;2.35;;
42146;SDS011;27815;43.410;11.852;2023-01-16T06:02:08;8.55;;;2.33;;
42146;SDS011;27815;43.410;11.852;2023-01-16T06:06:11;7.95;;;1.98;;
42146;SDS011;27815;43.410;11.852;2023-01-16T06:10:14;15.23;;;2.72;;
42146;SDS011;27815;43.410;11.852;2023-01-16T06:14:17;10.10;;;3.25;;
42146;SDS011;27815;43.410;11.852;2023-01-16T06:18:20;12.40;;;2.40;;
42146;SDS011;27815;43.410;11.852;2023-01-16T06:22:23;13.43;;;2.45;;
42146;SDS011;27815;43.410;11.852;2023-01-16T06:26:27;9.85;;;3.05;;
42146;SDS011;27815;43.410;11.852;2023-01-16T06:30:30;15.02;;;3.42;;
42146;SDS011;27815;43.410;11.852;2023-01-16T06:34:33;7.35;;;2.35;;
42146;SDS011;27815;43.410;11.852;2023-01-16T06:38:38;12.73;;;2.63;;
42146;SDS011;27815;43.410;11.852;2023-01-16T06:42:41;10.30;;;2.65;;
42146;SDS011;27815;43.410;11.852;2023-01-16T06:46:44;12.07;;;2.63;;
42146;SDS011;27815;43.410;11.852;2023-01-16T06:50:47;10.07;;;2.15;;
42146;SDS011;27815;43.410;11.852;2023-01-16T06:54:49;13.57;;;3.28;;
42146;SDS011;27815;43.410;11.852;2023-01-16T06:58:52;13.23;;;2.97;;
42146;SDS011;27815;43.410;11.852;2023-01-16T07:02:56;9.93;;;2.03;;
42146;SDS011;27815;43.410;11.852;2023-01-16T07:06:59;11.73;;;3.35;;
42146;SDS011;27815;43.410;11.852;2023-01-16T07:11:02;9.98;;;2.58;;
42146;SDS011;27815;43.410;11.852;2023-01-16T07:15:05;12.35;;;2.85;;
42146;SDS011;27815;43.410;11.852;2023-01-16T07:19:27;6.78;;;2.28;;
42146;SDS011;27815;43.410;11.852;2023-01-16T07:23:49;12.30;;;2.92;;
42146;SDS011;27815;43.410;11.852;2023-01-16T07:31:58;16.02;;;2.55;;
42146;SDS011;27815;43.410;11.852;2023-01-16T07:36:12;8.63;;;2.20;;
42146;SDS011;27815;43.410;11.852;2023-01-16T07:40:15;17.70;;;3.70;;
42146;SDS011;27815;43.410;11.852;2023-01-16T07:44:18;16.75;;;3.05;;
42146;SDS011;27815;43.410;11.852;2023-01-16T07:48:22;9.25;;;2.30;;
42146;SDS011;27815;43.410;11.852;2023-01-16T07:52:26;9.23;;;2.50;;
42146;SDS011;27815;43.410;11.852;2023-01-16T07:56:29;9.52;;;2.50;;
42146;SDS011;27815;43.410;11.852;2023-01-16T08:00:31;9.40;;;2.20;;
42146;SDS011;27815;43.410;11.852;2023-01-16T08:04:35;9.82;;;2.17;;
42146;SDS011;27815;43.410;11.852;2023-01-16T08:08:38;9.65;;;2.42;;
42146;SDS011;27815;43.410;11.852;2023-01-16T08:12:41;11.05;;;2.70;;
42146;SDS011;27815;43.410;11.852;2023-01-16T08:16:43;11.05;;;3.08;;
42146;SDS011;27815;43.410;11.852;2023-01-16T08:20:47;13.30;;;2.55;;
42146;SDS011;27815;43.410;11.852;2023-01-16T08:24:50;8.30;;;2.13;;
42146;SDS011;27815;43.410;11.852;2023-01-16T08:28:53;11.43;;;1.75;;
42146;SDS011;27815;43.410;11.852;2023-01-16T08:32:59;11.20;;;2.72;;
42146;SDS011;27815;43.410;11.852;2023-01-16T08:37:03;12.07;;;2.53;;
42146;SDS011;27815;43.410;11.852;2023-01-16T08:41:06;7.07;;;3.13;;
42146;SDS011;27815;43.410;11.852;2023-01-16T08:45:29;10.63;;;2.58;;
42146;SDS011;27815;43.410;11.852;2023-01-16T08:49:51;8.98;;;2.30;;
42146;SDS011;27815;43.410;11.852;2023-01-16T08:54:12;10.73;;;2.50;;
42146;SDS011;27815;43.410;11.852;2023-01-16T08:58:15;10.10;;;2.42;;
42146;SDS011;27815;43.410;11.852;2023-01-16T09:02:18;8.43;;;2.88;;
42146;SDS011;27815;43.410;11.852;2023-01-16T09:06:21;11.70;;;3.00;;
42146;SDS011;27815;43.410;11.852;2023-01-16T09:10:25;8.75;;;3.13;;
42146;SDS011;27815;43.410;11.852;2023-01-16T09:14:27;9.65;;;2.50;;
42146;SDS011;27815;43.410;11.852;2023-01-16T09:18:30;10.20;;;2.72;;
42146;SDS011;27815;43.410;11.852;2023-01-16T09:22:33;10.98;;;3.13;;
42146;SDS011;27815;43.410;11.852;2023-01-16T09:26:36;16.85;;;3.80;;
42146;SDS011;27815;43.410;11.852;2023-01-16T09:30:39;13.40;;;3.05;;
42146;SDS011;27815;43.410;11.852;2023-01-16T09:34:42;11.93;;;2.83;;
42146;SDS011;27815;43.410;11.852;2023-01-16T09:38:45;14.98;;;2.50;;
42146;SDS011;27815;43.410;11.852;2023-01-16T09:47:28;11.57;;;1.92;;
42146;SDS011;27815;43.410;11.852;2023-01-16T09:51:41;9.95;;;1.85;;
42146;SDS011;27815;43.410;11.852;2023-01-16T09:56:08;8.75;;;2.35;;
42146;SDS011;27815;43.410;11.852;2023-01-16T10:00:31;5.78;;;1.70;;
42146;SDS011;27815;43.410;11.852;2023-01-16T10:04:36;15.35;;;2.63;;
42146;SDS011;27815;43.410;11.852;2023-01-16T10:09:02;7.90;;;2.47;;
42146;SDS011;27815;43.410;11.852;2023-01-16T10:17:36;11.10;;;2.25;;
42146;SDS011;27815;43.410;11.852;2023-01-16T10:31:08;9.52;;;2.45;;
42146;SDS011;27815;43.410;11.852;2023-01-16T10:39:37;14.82;;;2.03;;
42146;SDS011;27815;43.410;11.852;2023-01-16T10:43:40;9.50;;;2.42;;
42146;SDS011;27815;43.410;11.852;2023-01-16T10:48:01;11.98;;;2.28;;
42146;SDS011;27815;43.410;11.852;2023-01-16T10:52:23;8.05;;;1.83;;
42146;SDS011;27815;43.410;11.852;2023-01-16T10:56:27;7.40;;;1.60;;
42146;SDS011;27815;43.410;11.852;2023-01-16T11:00:32;8.50;;;1.83;;
42146;SDS011;27815;43.410;11.852;2023-01-16T11:04:41;8.95;;;1.60;;
42146;SDS011;27815;43.410;11.852;2023-01-16T11:08:46;10.57;;;1.48;;
42146;SDS011;27815;43.410;11.852;2023-01-16T11:12:51;4.40;;;1.50;;
42146;SDS011;27815;43.410;11.852;2023-01-16T11:22:09;7.40;;;1.48;;
42146;SDS011;27815;43.410;11.852;2023-01-16T11:26:23;7.15;;;1.75;;
42146;SDS011;27815;43.410;11.852;2023-01-16T11:30:28;6.20;;;1.55;;
42146;SDS011;27815;43.410;11.852;2023-01-16T11:34:34;5.40;;;1.25;;
42146;SDS011;27815;43.410;11.852;2023-01-16T11:38:42;7.32;;;1.88;;
42146;SDS011;27815;43.410;11.852;2023-01-16T11:42:51;8.55;;;1.70;;
42146;SDS011;27815;43.410;11.852;2023-01-16T11:47:15;6.47;;;1.33;;
42146;SDS011;27815;43.410;11.852;2023-01-16T11:51:21;9.68;;;2.20;;
42146;SDS011;27815;43.410;11.852;2023-01-16T11:55:32;8.35;;;1.60;;
42146;SDS011;27815;43.410;11.852;2023-01-16T12:12:41;8.20;;;2.50;;
42146;SDS011;27815;43.410;11.852;2023-01-16T12:21:43;6.13;;;1.30;;
42146;SDS011;27815;43.410;11.852;2023-01-16T12:26:24;5.20;;;1.58;;
42146;SDS011;27815;43.410;11.852;2023-01-16T12:35:21;6.22;;;1.80;;
42146;SDS011;27815;43.410;11.852;2023-01-16T12:52:26;9.70;;;1.70;;
42146;SDS011;27815;43.410;11.852;2023-01-16T12:56:52;7.03;;;1.38;;
42146;SDS011;27815;43.410;11.852;2023-01-16T13:01:17;8.05;;;1.67;;
42146;SDS011;27815;43.410;11.852;2023-01-16T13:05:27;6.07;;;1.58;;
42146;SDS011;27815;43.410;11.852;2023-01-16T13:09:45;6.10;;;1.50;;
42146;SDS011;27815;43.410;11.852;2023-01-16T13:14:31;9.48;;;1.83;;
42146;SDS011;27815;43.410;11.852;2023-01-16T13:18:57;7.90;;;2.42;;
42146;SDS011;27815;43.410;11.852;2023-01-16T13:23:38;7.40;;;1.83;;
42146;SDS011;27815;43.410;11.852;2023-01-16T13:27:45;5.30;;;1.20;;
42146;SDS011;27815;43.410;11.852;2023-01-16T13:31:54;7.47;;;2.25;;
42146;SDS011;27815;43.410;11.852;2023-01-16T13:45:29;7.10;;;1.52;;
42146;SDS011;27815;43.410;11.852;2023-01-16T13:49:53;7.88;;;1.45;;
42146;SDS011;27815;43.410;11.852;2023-01-16T13:54:03;7.88;;;1.88;;
42146;SDS011;27815;43.410;11.852;2023-01-16T13:58:14;6.88;;;1.38;;
42146;SDS011;27815;43.410;11.852;2023-01-16T14:06:42;6.70;;;1.77;;
42146;SDS011;27815;43.410;11.852;2023-01-16T14:20:14;6.35;;;1.67;;
42146;SDS011;27815;43.410;11.852;2023-01-16T14:24:40;11.25;;;3.15;;
42146;SDS011;27815;43.410;11.852;2023-01-16T14:28:48;8.23;;;2.85;;
42146;SDS011;27815;43.410;11.852;2023-01-16T14:32:57;8.75;;;2.97;;
42146;SDS011;27815;43.410;11.852;2023-01-16T14:37:02;10.10;;;2.45;;
42146;SDS011;27815;43.410;11.852;2023-01-16T14:41:15;6.68;;;1.92;;
42146;SDS011;27815;43.410;11.852;2023-01-16T14:45:39;8.05;;;2.28;;
42146;SDS011;27815;43.410;11.852;2023-01-16T14:50:12;10.82;;;3.65;;
42146;SDS011;27815;43.410;11.852;2023-01-16T14:54:38;11.82;;;2.33;;
42146;SDS011;27815;43.410;11.852;2023-01-16T15:03:20;6.97;;;2.13;;
42146;SDS011;27815;43.410;11.852;2023-01-16T15:07:28;6.05;;;1.88;;
42146;SDS011;27815;43.410;11.852;2023-01-16T15:11:47;11.13;;;2.00;;
42146;SDS011;27815;43.410;11.852;2023-01-16T15:15:58;7.18;;;1.90;;
42146;SDS011;27815;43.410;11.852;2023-01-16T15:24:24;7.65;;;2.20;;
42146;SDS011;27815;43.410;11.852;2023-01-16T15:33:01;7.65;;;2.42;;
42146;SDS011;27815;43.410;11.852;2023-01-16T15:37:23;6.60;;;2.75;;
42146;SDS011;27815;43.410;11.852;2023-01-16T15:41:30;10.55;;;2.17;;
42146;SDS011;27815;43.410;11.852;2023-01-16T15:50:46;8.90;;;2.00;;
42146;SDS011;27815;43.410;11.852;2023-01-16T15:55:08;6.50;;;2.22;;
42146;SDS011;27815;43.410;11.852;2023-01-16T15:59:29;10.30;;;2.97;;
42146;SDS011;27815;43.410;11.852;2023-01-16T16:03:41;7.10;;;2.40;;
42146;SDS011;27815;43.410;11.852;2023-01-16T16:07:48;6.65;;;2.10;;
42146;SDS011;27815;43.410;11.852;2023-01-16T16:11:52;6.80;;;2.95;;
42146;SDS011;27815;43.410;11.852;2023-01-16T16:15:56;8.90;;;3.40;;
42146;SDS011;27815;43.410;11.852;2023-01-16T16:24:35;7.20;;;2.28;;
42146;SDS011;27815;43.410;11.852;2023-01-16T16:28:40;9.40;;;2.28;;
42146;SDS011;27815;43.410;11.852;2023-01-16T16:32:43;6.45;;;2.20;;
42146;SDS011;27815;43.410;11.852;2023-01-16T16:36:47;6.38;;;2.08;;
42146;SDS011;27815;43.410;11.852;2023-01-16T16:41:16;4.88;;;1.42;;
42146;SDS011;27815;43.410;11.852;2023-01-16T16:45:30;5.10;;;1.73;;
42146;SDS011;27815;43.410;11.852;2023-01-16T16:49:36;7.27;;;2.70;;
42146;SDS011;27815;43.410;11.852;2023-01-16T16:53:43;7.53;;;2.20;;
42146;SDS011;27815;43.410;11.852;2023-01-16T16:57:47;8.25;;;1.70;;
42146;SDS011;27815;43.410;11.852;2023-01-16T17:01:51;7.60;;;2.08;;
42146;SDS011;27815;43.410;11.852;2023-01-16T17:05:57;15.02;;;2.40;;
42146;SDS011;27815;43.410;11.852;2023-01-16T17:10:03;6.65;;;1.85;;
42146;SDS011;27815;43.410;11.852;2023-01-16T17:14:07;6.55;;;2.00;;
42146;SDS011;27815;43.410;11.852;2023-01-16T17:18:10;5.07;;;2.13;;
42146;SDS011;27815;43.410;11.852;2023-01-16T17:22:14;4.60;;;1.67;;
42146;SDS011;27815;43.410;11.852;2023-01-16T17:26:17;4.88;;;1.70;;
42146;SDS011;27815;43.410;11.852;2023-01-16T17:30:21;2.50;;;1.50;;
42146;SDS011;27815;43.410;11.852;2023-01-16T17:34:26;4.43;;;1.50;;
42146;SDS011;27815;43.410;11.852;2023-01-16T17:38:29;1.88;;;1.25;;
42146;SDS011;27815;43.410;11.852;2023-01-16T17:42:32;6.07;;;1.80;;
42146;SDS011;27815;43.410;11.852;2023-01-16T17:46:54;3.03;;;1.23;;
42146;SDS011;27815;43.410;11.852;2023-01-16T17:50:57;4.78;;;2.08;;
42146;SDS011;27815;43.410;11.852;2023-01-16T17:55:03;4.28;;;1.92;;
42146;SDS011;27815;43.410;11.852;2023-01-16T17:59:25;12.50;;;2.38;;
42146;SDS011;27815;43.410;11.852;2023-01-16T18:03:30;6.93;;;2.25;;
42146;SDS011;27815;43.410;11.852;2023-01-16T18:07:34;6.40;;;2.80;;
42146;SDS011;27815;43.410;11.852;2023-01-16T18:11:38;8.68;;;2.17;;
42146;SDS011;27815;43.410;11.852;2023-01-16T18:16:03;5.10;;;1.80;;
42146;SDS011;27815;43.410;11.852;2023-01-16T18:20:25;5.70;;;2.60;;
42146;SDS011;27815;43.410;11.852;2023-01-16T18:24:29;5.47;;;2.17;;
42146;SDS011;27815;43.410;11.852;2023-01-16T18:28:33;10.82;;;3.50;;
42146;SDS011;27815;43.410;11.852;2023-01-16T18:32:36;7.13;;;2.28;;
42146;SDS011;27815;43.410;11.852;2023-01-16T18:36:39;4.40;;;2.13;;
42146;SDS011;27815;43.410;11.852;2023-01-16T18:40:42;6.40;;;1.92;;
42146;SDS011;27815;43.410;11.852;2023-01-16T18:45:05;4.00;;;2.08;;
42146;SDS011;27815;43.410;11.852;2023-01-16T18:49:26;2.88;;;1.45;;
42146;SDS011;27815;43.410;11.852;2023-01-16T18:53:49;3.35;;;1.17;;
42146;SDS011;27815;43.410;11.852;2023-01-16T18:58:12;5.55;;;1.35;;
42146;SDS011;27815;43.410;11.852;2023-01-16T19:02:40;5.32;;;1.20;;
42146;SDS011;27815;43.410;11.852;2023-01-16T19:06:44;4.10;;;1.52;;
42146;SDS011;27815;43.410;11.852;2023-01-16T19:10:50;1.55;;;0.95;;
42146;SDS011;27815;43.410;11.852;2023-01-16T19:14:55;3.58;;;1.60;;
42146;SDS011;27815;43.410;11.852;2023-01-16T19:18:58;5.20;;;1.38;;
42146;SDS011;27815;43.410;11.852;2023-01-16T19:23:07;2.25;;;0.85;;
42146;SDS011;27815;43.410;11.852;2023-01-16T19:27:12;7.20;;;1.50;;
42146;SDS011;27815;43.410;11.852;2023-01-16T19:31:14;2.80;;;1.10;;
42146;SDS011;27815;43.410;11.852;2023-01-16T19:35:17;2.90;;;1.20;;
42146;SDS011;27815;43.410;11.852;2023-01-16T19:39:21;3.03;;;1.10;;
42146;SDS011;27815;43.410;11.852;2023-01-16T19:43:24;1.40;;;0.90;;
42146;SDS011;27815;43.410;11.852;2023-01-16T19:47:45;4.85;;;1.75;;
42146;SDS011;27815;43.410;11.852;2023-01-16T19:51:48;2.58;;;1.30;;
42146;SDS011;27815;43.410;11.852;2023-01-16T19:55:53;3.88;;;1.42;;
42146;SDS011;27815;43.410;11.852;2023-01-16T19:59:55;4.70;;;1.52;;
42146;SDS011;27815;43.410;11.852;2023-01-16T20:03:58;7.28;;;2.35;;
42146;SDS011;27815;43.410;11.852;2023-01-16T20:08:01;5.53;;;1.92;;
42146;SDS011;27815;43.410;11.852;2023-01-16T20:12:04;3.95;;;1.35;;
42146;SDS011;27815;43.410;11.852;2023-01-16T20:16:26;4.43;;;1.42;;
42146;SDS011;27815;43.410;11.852;2023-01-16T20:20:29;5.25;;;1.55;;
42146;SDS011;27815;43.410;11.852;2023-01-16T20:24:32;7.80;;;1.67;;
42146;SDS011;27815;43.410;11.852;2023-01-16T20:28:35;4.32;;;1.23;;
42146;SDS011;27815;43.410;11.852;2023-01-16T20:32:40;3.20;;;1.52;;
42146;SDS011;27815;43.410;11.852;2023-01-16T20:36:43;3.83;;;1.60;;
42146;SDS011;27815;43.410;11.852;2023-01-16T20:40:46;3.53;;;1.30;;
42146;SDS011;27815;43.410;11.852;2023-01-16T20:44:49;1.65;;;0.88;;
42146;SDS011;27815;43.410;11.852;2023-01-16T20:49:10;3.50;;;1.58;;
42146;SDS011;27815;43.410;11.852;2023-01-16T20:53:13;2.85;;;1.15;;
42146;SDS011;27815;43.410;11.852;2023-01-16T20:57:16;4.95;;;1.25;;
42146;SDS011;27815;43.410;11.852;2023-01-16T21:01:19;5.40;;;1.92;;
42146;SDS011;27815;43.410;11.852;2023-01-16T21:05:23;2.67;;;0.70;;
42146;SDS011;27815;43.410;11.852;2023-01-16T21:09:26;3.42;;;1.20;;
42146;SDS011;27815;43.410;11.852;2023-01-16T21:13:29;7.78;;;1.70;;
42146;SDS011;27815;43.410;11.852;2023-01-16T21:17:54;3.65;;;1.30;;
42146;SDS011;27815;43.410;11.852;2023-01-16T21:22:17;5.75;;;1.60;;
42146;SDS011;27815;43.410;11.852;2023-01-16T21:26:24;4.13;;;1.42;;
42146;SDS011;27815;43.410;11.852;2023-01-16T21:30:27;8.00;;;1.63;;
42146;SDS011;27815;43.410;11.852;2023-01-16T21:34:35;5.88;;;1.45;;
42146;SDS011;27815;43.410;11.852;2023-01-16T21:38:39;7.68;;;1.88;;
42146;SDS011;27815;43.410;11.852;2023-01-16T21:42:42;4.60;;;1.30;;
42146;SDS011;27815;43.410;11.852;2023-01-16T21:47:04;5.00;;;1.50;;
42146;SDS011;27815;43.410;11.852;2023-01-16T21:51:08;4.47;;;1.70;;
42146;SDS011;27815;43.410;11.852;2023-01-16T21:55:10;3.70;;;1.15;;
42146;SDS011;27815;43.410;11.852;2023-01-16T21:59:14;6.20;;;1.85;;
42146;SDS011;27815;43.410;11.852;2023-01-16T22:03:17;3.78;;;1.40;;
42146;SDS011;27815;43.410;11.852;2023-01-16T22:07:19;5.45;;;1.38;;
42146;SDS011;27815;43.410;11.852;2023-01-16T22:11:22;4.65;;;1.58;;
42146;SDS011;27815;43.410;11.852;2023-01-16T22:15:43;7.30;;;1.50;;
42146;SDS011;27815;43.410;11.852;2023-01-16T22:20:05;6.88;;;2.00;;
42146;SDS011;27815;43.410;11.852;2023-01-16T22:24:14;6.15;;;1.30;;
42146;SDS011;27815;43.410;11.852;2023-01-16T22:28:17;4.65;;;1.40;;
42146;SDS011;27815;43.410;11.852;2023-01-16T22:32:22;8.57;;;1.73;;
42146;SDS011;27815;43.410;11.852;2023-01-16T22:36:26;3.75;;;1.10;;
42146;SDS011;27815;43.410;11.852;2023-01-16T22:40:30;6.55;;;1.15;;
42146;SDS011;27815;43.410;11.852;2023-01-16T22:44:33;5.70;;;1.17;;
42146;SDS011;27815;43.410;11.852;2023-01-16T22:48:55;4.45;;;1.13;;
42146;SDS011;27815;43.410;11.852;2023-01-16T22:53:03;1.08;;;0.80;;
42146;SDS011;27815;43.410;11.852;2023-01-16T22:57:09;1.63;;;0.70;;
42146;SDS011;27815;43.410;11.852;2023-01-16T23:01:13;4.35;;;0.90;;
42146;SDS011;27815;43.410;11.852;2023-01-16T23:05:22;3.40;;;1.02;;
42146;SDS011;27815;43.410;11.852;2023-01-16T23:09:26;2.55;;;0.82;;
42146;SDS011;27815;43.410;11.852;2023-01-16T23:13:29;1.48;;;0.90;;
42146;SDS011;27815;43.410;11.852;2023-01-16T23:17:31;1.60;;;0.70;;
42146;SDS011;27815;43.410;11.852;2023-01-16T23:21:35;2.67;;;1.15;;
42146;SDS011;27815;43.410;11.852;2023-01-16T23:25:38;2.90;;;1.02;;
42146;SDS011;27815;43.410;11.852;2023-01-16T23:29:41;4.25;;;0.80;;
42146;SDS011;27815;43.410;11.852;2023-01-16T23:33:44;3.22;;;0.90;;
42146;SDS011;27815;43.410;11.852;2023-01-16T23:37:47;4.95;;;0.75;;
42146;SDS011;27815;43.410;11.852;2023-01-16T23:41:49;2.88;;;0.70;;
42146;SDS011;27815;43.410;11.852;2023-01-16T23:46:11;0.52;;;0.50;;
42146;SDS011;27815;43.410;11.852;2023-01-16T23:50:14;2.33;;;0.80;;
42146;SDS011;27815;43.410;11.852;2023-01-16T23:54:17;4.03;;;1.08;;
42146;SDS011;27815;43.410;11.852;2023-01-16T23:58:19;1.50;;;0.70;;
